Time;durP1;ratioP1;P1;durP2;ratioP2;P2;SDS_P1;SDS_P2;PMS_P1;PMS_P2;Temp;Humidity;BMP_temperature;BMP_pressure;BME280_temperature;BME280_humidity;BME280_pressure;Samples;Min_cycle;Max_cycle;Signal;HPM_P1;HPM_P2
2022/05/20 00:00:35;;;;;;;5.47;3.40;;;;;;;;;;4958062;28;20051;-73
2022/05/20 00:03:01;;;;;;;6.10;2.80;;;;;;;;;;4961009;28;20042;-72
2022/05/20 00:05:27;;;;;;;11.32;3.47;;;;;;;;;;4960687;28;20070;-73
2022/05/20 00:10:28;;;;;;;3.97;3.25;;;;;;;;;;5211337;23;20069;-72
2022/05/20 00:12:55;;;;;;;6.72;3.25;;;;;;;;;;4962438;28;20049;-72
2022/05/20 00:15:23;;;;;;;5.15;3.03;;;;;;;;;;4974521;28;20397;-73
2022/05/20 00:17:49;;;;;;;8.43;2.85;;;;;;;;;;4964516;28;20278;-73
2022/05/20 00:20:17;;;;;;;6.30;3.35;;;;;;;;;;4964247;28;20054;-73
2022/05/20 00:22:43;;;;;;;7.13;3.30;;;;;;;;;;4964060;28;20500;-73
2022/05/20 00:27:55;;;;;;;6.47;2.97;;;;;;;;;;4964167;28;20606;-73
2022/05/20 00:30:21;;;;;;;4.03;3.05;;;;;;;;;;4964777;28;20038;-72
2022/05/20 00:32:47;;;;;;;4.00;3.03;;;;;;;;;;4964388;28;20036;-72
2022/05/20 00:35:13;;;;;;;6.60;3.53;;;;;;;;;;4963763;28;20050;-74
2022/05/20 00:37:42;;;;;;;7.32;3.38;;;;;;;;;;4962318;28;20058;-72
2022/05/20 00:40:11;;;;;;;10.75;3.60;;;;;;;;;;4964330;28;20049;-72
2022/05/20 00:42:36;;;;;;;13.23;3.33;;;;;;;;;;4962807;28;20797;-71
2022/05/20 00:45:04;;;;;;;8.75;3.30;;;;;;;;;;4964509;28;20030;-74
2022/05/20 00:47:29;;;;;;;5.85;3.83;;;;;;;;;;4963644;28;20751;-73
2022/05/20 00:49:56;;;;;;;3.88;3.13;;;;;;;;;;4962503;28;20478;-73
2022/05/20 00:52:27;;;;;;;4.57;3.00;;;;;;;;;;4961507;28;20557;-73
2022/05/20 00:54:58;;;;;;;5.40;2.97;;;;;;;;;;4963014;28;20039;-73
2022/05/20 00:57:29;;;;;;;9.55;3.60;;;;;;;;;;4965607;28;21595;-73
2022/05/20 00:59:59;;;;;;;9.02;3.92;;;;;;;;;;4965722;28;20569;-73
2022/05/20 01:02:27;;;;;;;5.00;3.47;;;;;;;;;;4964408;28;20054;-73
2022/05/20 01:04:56;;;;;;;6.72;3.50;;;;;;;;;;4950643;28;20048;-73
2022/05/20 01:07:22;;;;;;;8.48;3.35;;;;;;;;;;4967747;28;20209;-74
2022/05/20 01:09:48;;;;;;;8.95;3.15;;;;;;;;;;4966121;28;20502;-72
2022/05/20 01:12:14;;;;;;;5.05;3.40;;;;;;;;;;4967351;28;20079;-73
2022/05/20 01:14:40;;;;;;;8.60;3.45;;;;;;;;;;4965107;28;20026;-73
2022/05/20 01:17:07;;;;;;;8.27;3.38;;;;;;;;;;4964989;28;20046;-73
2022/05/20 01:19:49;;;;;;;7.75;3.75;;;;;;;;;;4964857;28;23040;-73
2022/05/20 01:22:34;;;;;;;6.57;3.38;;;;;;;;;;4966615;28;20042;-73
2022/05/20 01:25:01;;;;;;;7.32;3.75;;;;;;;;;;4966528;28;20049;-72
2022/05/20 01:27:27;;;;;;;8.30;3.85;;;;;;;;;;4963983;28;20076;-73
2022/05/20 01:29:52;;;;;;;5.32;4.03;;;;;;;;;;4965138;28;20029;-73
2022/05/20 01:32:18;;;;;;;8.68;3.80;;;;;;;;;;4966057;28;20054;-73
2022/05/20 01:34:44;;;;;;;7.00;4.10;;;;;;;;;;4966029;28;20129;-73
2022/05/20 01:37:09;;;;;;;8.13;4.05;;;;;;;;;;4964624;28;20049;-72
2022/05/20 01:39:35;;;;;;;7.55;3.90;;;;;;;;;;4966455;28;20478;-73
2022/05/20 01:42:14;;;;;;;17.35;4.40;;;;;;;;;;4967036;28;20022;-72
2022/05/20 01:44:49;;;;;;;7.50;4.20;;;;;;;;;;4945891;28;21389;-72
2022/05/20 01:47:18;;;;;;;7.55;4.50;;;;;;;;;;4966079;28;21754;-72
2022/05/20 01:49:53;;;;;;;7.20;4.45;;;;;;;;;;4958055;28;20580;-73
2022/05/20 01:52:40;;;;;;;9.82;4.57;;;;;;;;;;4957430;28;22227;-73
2022/05/20 01:55:16;;;;;;;6.68;3.95;;;;;;;;;;4967884;28;20040;-73
2022/05/20 01:57:57;;;;;;;9.20;4.43;;;;;;;;;;4968991;28;20043;-72
2022/05/20 02:00:27;;;;;;;8.05;4.50;;;;;;;;;;4968981;28;20156;-74
2022/05/20 02:03:29;;;;;;;6.68;4.00;;;;;;;;;;4964875;28;20026;-73
2022/05/20 02:06:27;;;;;;;8.50;4.32;;;;;;;;;;4946183;28;20193;-73
2022/05/20 02:09:02;;;;;;;6.32;4.00;;;;;;;;;;4914733;28;20053;-74
2022/05/20 02:11:34;;;;;;;6.43;4.18;;;;;;;;;;4965678;28;20050;-73
2022/05/20 02:14:07;;;;;;;14.80;4.32;;;;;;;;;;4968007;28;20034;-72
2022/05/20 02:16:37;;;;;;;11.27;3.65;;;;;;;;;;4968278;28;20437;-73
2022/05/20 02:19:15;;;;;;;6.53;4.07;;;;;;;;;;4965292;28;20042;-73
2022/05/20 02:21:46;;;;;;;5.10;3.88;;;;;;;;;;4968876;28;20045;-73
2022/05/20 02:24:17;;;;;;;8.40;4.40;;;;;;;;;;4969191;28;20025;-73
2022/05/20 02:26:51;;;;;;;6.55;3.67;;;;;;;;;;4968608;28;20096;-73
2022/05/20 02:29:20;;;;;;;5.80;3.70;;;;;;;;;;4969170;28;20037;-73
2022/05/20 02:31:53;;;;;;;12.35;4.85;;;;;;;;;;4968114;28;20093;-73
2022/05/20 02:34:19;;;;;;;;;;;;;;;;;;4966120;28;20553;-71
2022/05/20 02:36:44;;;;;;;7.13;3.50;;;;;;;;;;4969129;28;19929;-73
2022/05/20 02:39:16;;;;;;;15.70;3.97;;;;;;;;;;4968880;28;20037;-73
2022/05/20 02:41:46;;;;;;;8.13;4.18;;;;;;;;;;4969016;28;20141;-72
2022/05/20 02:44:12;;;;;;;9.13;4.18;;;;;;;;;;4970235;28;20123;-74
2022/05/20 02:46:39;;;;;;;9.90;3.75;;;;;;;;;;4968586;28;20617;-72
2022/05/20 02:49:05;;;;;;;6.90;3.75;;;;;;;;;;4966583;28;20152;-73
2022/05/20 02:51:30;;;;;;;6.47;3.45;;;;;;;;;;4967299;28;20571;-73
2022/05/20 02:53:55;;;;;;;11.32;4.28;;;;;;;;;;4969431;28;20049;-71
2022/05/20 02:56:21;;;;;;;8.90;4.28;;;;;;;;;;4968385;28;21234;-71
2022/05/20 03:04:14;;;;;;;17.02;3.40;;;;;;;;;;4968927;28;20242;-72
2022/05/20 03:06:48;;;;;;;8.85;4.03;;;;;;;;;;4968872;28;20042;-72
2022/05/20 03:09:15;;;;;;;8.15;3.78;;;;;;;;;;4967962;28;20036;-72
2022/05/20 03:11:42;;;;;;;7.70;3.72;;;;;;;;;;4969949;28;20026;-72
2022/05/20 03:14:13;;;;;;;11.18;3.60;;;;;;;;;;4949899;28;20050;-72
2022/05/20 03:16:38;;;;;;;8.20;3.15;;;;;;;;;;4961960;28;20049;-72
2022/05/20 03:19:04;;;;;;;10.40;3.70;;;;;;;;;;4967892;28;20715;-72
2022/05/20 03:21:31;;;;;;;14.80;3.60;;;;;;;;;;4967893;28;20054;-74
2022/05/20 03:23:59;;;;;;;14.02;3.83;;;;;;;;;;4968888;28;20498;-73
2022/05/20 03:26:26;;;;;;;8.00;4.15;;;;;;;;;;4970247;28;20084;-71
2022/05/20 03:28:52;;;;;;;7.72;3.70;;;;;;;;;;4968648;28;20085;-71
2022/05/20 03:31:17;;;;;;;12.98;3.78;;;;;;;;;;4967737;28;20437;-71
2022/05/20 03:33:43;;;;;;;7.88;3.83;;;;;;;;;;4965909;28;20040;-71
2022/05/20 03:36:08;;;;;;;7.57;3.58;;;;;;;;;;4969549;28;20060;-71
2022/05/20 03:38:35;;;;;;;8.07;4.10;;;;;;;;;;4967414;28;20558;-72
2022/05/20 03:41:00;;;;;;;28.73;4.63;;;;;;;;;;4965936;28;20103;-72
2022/05/20 03:43:26;;;;;;;14.02;4.95;;;;;;;;;;4966829;28;20790;-73
2022/05/20 03:45:53;;;;;;;14.20;4.43;;;;;;;;;;4967840;28;20496;-72
2022/05/20 03:48:19;;;;;;;10.15;4.22;;;;;;;;;;4968891;28;20033;-72
2022/05/20 03:50:44;;;;;;;9.07;4.20;;;;;;;;;;4967925;28;20040;-72
2022/05/20 03:53:10;;;;;;;9.15;4.05;;;;;;;;;;4967634;28;20042;-71
2022/05/20 03:55:35;;;;;;;7.13;3.83;;;;;;;;;;4969147;28;20145;-72
2022/05/20 03:58:01;;;;;;;12.02;4.57;;;;;;;;;;4966806;28;20077;-72
2022/05/20 04:00:26;;;;;;;8.43;4.40;;;;;;;;;;4967393;28;20687;-72
2022/05/20 04:02:51;;;;;;;9.52;4.05;;;;;;;;;;4970026;28;20072;-73
2022/05/20 04:05:17;;;;;;;10.43;5.05;;;;;;;;;;4967878;28;20662;-72
2022/05/20 04:07:42;;;;;;;8.27;4.35;;;;;;;;;;4952207;28;22835;-72
2022/05/20 04:10:08;;;;;;;9.90;5.13;;;;;;;;;;4955645;28;20097;-72
2022/05/20 04:12:37;;;;;;;10.38;5.10;;;;;;;;;;4963744;28;20038;-72
2022/05/20 04:15:05;;;;;;;9.40;4.60;;;;;;;;;;4945777;28;20038;-71
2022/05/20 04:17:30;;;;;;;11.18;4.95;;;;;;;;;;4947619;28;20498;-72
2022/05/20 04:19:56;;;;;;;8.57;4.70;;;;;;;;;;4966034;28;20053;-72
2022/05/20 04:22:27;;;;;;;9.88;4.25;;;;;;;;;;4969772;28;20129;-73
2022/05/20 04:24:52;;;;;;;8.57;5.03;;;;;;;;;;4969053;28;20038;-72
2022/05/20 04:27:18;;;;;;;12.02;5.38;;;;;;;;;;4969498;28;20244;-72
2022/05/20 04:29:43;;;;;;;12.25;5.43;;;;;;;;;;4970142;28;20023;-72
2022/05/20 04:32:09;;;;;;;11.30;5.38;;;;;;;;;;4971927;28;20046;-70
2022/05/20 04:34:34;;;;;;;10.02;4.13;;;;;;;;;;4958740;28;20045;-71
2022/05/20 04:37:00;;;;;;;11.27;4.70;;;;;;;;;;4958501;28;20037;-73
2022/05/20 04:39:25;;;;;;;15.63;5.70;;;;;;;;;;4968822;28;20034;-72
2022/05/20 04:47:24;;;;;;;16.65;5.32;;;;;;;;;;4971290;28;20463;-72
2022/05/20 04:49:50;;;;;;;24.05;5.68;;;;;;;;;;4971647;28;20039;-73
2022/05/20 04:52:16;;;;;;;12.20;5.32;;;;;;;;;;4971693;28;20156;-72
2022/05/20 04:54:50;;;;;;;11.20;5.18;;;;;;;;;;4968580;28;20065;-72
2022/05/20 04:57:43;;;;;;;14.15;5.80;;;;;;;;;;4971969;28;20197;-72
2022/05/20 05:00:12;;;;;;;11.70;5.00;;;;;;;;;;4973027;28;20034;-72
2022/05/20 05:02:38;;;;;;;10.30;5.68;;;;;;;;;;4969980;28;20095;-72
2022/05/20 05:05:06;;;;;;;10.80;5.43;;;;;;;;;;4970298;28;20048;-72
2022/05/20 05:07:32;;;;;;;10.23;5.60;;;;;;;;;;4958936;28;20039;-71
2022/05/20 05:09:58;;;;;;;10.18;6.05;;;;;;;;;;4949900;28;20054;-72
2022/05/20 05:12:24;;;;;;;12.32;4.85;;;;;;;;;;4951287;28;20030;-71
2022/05/20 05:14:52;;;;;;;10.02;5.10;;;;;;;;;;4967027;28;20402;-73
2022/05/20 05:20:16;;;;;;;11.73;5.35;;;;;;;;;;4971153;28;20141;-72
2022/05/20 05:22:42;;;;;;;11.00;5.32;;;;;;;;;;4970879;28;20066;-72
2022/05/20 05:25:09;;;;;;;11.88;5.68;;;;;;;;;;4970872;28;20143;-73
2022/05/20 05:27:35;;;;;;;7.38;5.03;;;;;;;;;;4970308;28;20043;-73
2022/05/20 05:30:01;;;;;;;9.57;5.07;;;;;;;;;;4986097;28;20065;-72
2022/05/20 05:32:26;;;;;;;13.90;5.15;;;;;;;;;;4969566;28;21322;-72
2022/05/20 05:34:52;;;;;;;8.13;4.95;;;;;;;;;;4970874;28;20115;-73
2022/05/20 05:37:17;;;;;;;8.88;4.57;;;;;;;;;;4969555;28;20042;-72
2022/05/20 05:39:42;;;;;;;10.25;5.32;;;;;;;;;;4966109;28;20046;-73
2022/05/20 05:42:08;;;;;;;10.73;5.07;;;;;;;;;;4970017;28;20529;-72
2022/05/20 05:44:34;;;;;;;10.13;5.70;;;;;;;;;;4968631;28;20421;-72
2022/05/20 05:46:59;;;;;;;9.27;5.03;;;;;;;;;;4953169;28;20098;-71
2022/05/20 05:49:24;;;;;;;10.65;5.75;;;;;;;;;;4957995;28;20050;-73
2022/05/20 05:51:50;;;;;;;12.55;6.03;;;;;;;;;;4963828;28;20038;-74
2022/05/20 05:54:16;;;;;;;16.25;6.78;;;;;;;;;;4965407;28;20038;-72
2022/05/20 05:56:42;;;;;;;12.10;6.47;;;;;;;;;;4969246;28;20485;-72
2022/05/20 05:59:08;;;;;;;10.68;5.95;;;;;;;;;;4969004;28;20050;-71
2022/05/20 06:01:33;;;;;;;12.13;6.60;;;;;;;;;;4969698;28;20049;-71
2022/05/20 06:03:59;;;;;;;12.48;6.55;;;;;;;;;;4969804;28;20049;-73
2022/05/20 06:06:24;;;;;;;12.00;6.38;;;;;;;;;;4969935;28;20077;-73
2022/05/20 06:08:49;;;;;;;13.90;7.65;;;;;;;;;;4969375;28;20033;-72
2022/05/20 06:11:15;;;;;;;12.43;7.00;;;;;;;;;;4969942;28;20043;-73
2022/05/20 06:13:41;;;;;;;12.32;6.97;;;;;;;;;;4969486;28;20109;-71
2022/05/20 06:16:06;;;;;;;13.02;7.03;;;;;;;;;;4971206;28;20034;-72
2022/05/20 06:18:32;;;;;;;14.68;7.13;;;;;;;;;;4969221;28;20748;-71
2022/05/20 06:20:58;;;;;;;9.80;6.95;;;;;;;;;;4969337;28;20700;-72
2022/05/20 06:23:24;;;;;;;15.82;8.25;;;;;;;;;;4967956;28;20042;-72
2022/05/20 06:25:49;;;;;;;16.55;7.18;;;;;;;;;;4970070;28;20085;-71
2022/05/20 06:28:16;;;;;;;12.27;7.55;;;;;;;;;;4969750;28;20462;-72
2022/05/20 06:30:43;;;;;;;10.82;6.22;;;;;;;;;;4970638;28;20081;-69
2022/05/20 06:33:09;;;;;;;11.82;6.85;;;;;;;;;;4970908;28;21602;-72
2022/05/20 06:41:04;;;;;;;14.90;7.05;;;;;;;;;;4971433;28;20060;-71
2022/05/20 06:43:29;;;;;;;14.00;6.40;;;;;;;;;;4971279;28;20038;-72
2022/05/20 06:45:58;;;;;;;11.18;7.15;;;;;;;;;;4971151;28;20120;-72
2022/05/20 06:48:35;;;;;;;13.30;7.00;;;;;;;;;;4972537;28;20041;-70
2022/05/20 06:51:04;;;;;;;17.20;6.60;;;;;;;;;;4972002;28;20029;-71
2022/05/20 06:53:29;;;;;;;12.40;6.68;;;;;;;;;;4969423;28;20408;-72
2022/05/20 06:55:55;;;;;;;13.35;6.15;;;;;;;;;;4968930;28;20037;-72
2022/05/20 06:58:20;;;;;;;8.05;5.90;;;;;;;;;;4969250;28;22866;-71
2022/05/20 07:00:45;;;;;;;12.13;6.03;;;;;;;;;;4970527;28;20125;-71
2022/05/20 07:03:11;;;;;;;13.57;6.35;;;;;;;;;;4971814;28;20030;-72
2022/05/20 07:05:36;;;;;;;11.35;5.72;;;;;;;;;;4971010;28;20597;-71
2022/05/20 07:08:02;;;;;;;21.25;6.18;;;;;;;;;;4969790;28;20038;-71
2022/05/20 07:10:27;;;;;;;7.53;5.65;;;;;;;;;;4969413;28;20777;-71
2022/05/20 07:12:52;;;;;;;9.00;5.68;;;;;;;;;;4969751;28;20054;-70
2022/05/20 07:15:19;;;;;;;11.38;4.95;;;;;;;;;;4968295;28;20769;-72
2022/05/20 07:17:46;;;;;;;8.43;5.18;;;;;;;;;;4969357;28;20026;-72
2022/05/20 07:20:12;;;;;;;8.70;5.50;;;;;;;;;;4970263;28;20038;-72
2022/05/20 07:22:37;;;;;;;13.90;5.95;;;;;;;;;;4969542;28;20045;-70
2022/05/20 07:25:03;;;;;;;8.68;5.47;;;;;;;;;;4968290;28;20038;-72
2022/05/20 07:27:30;;;;;;;14.57;5.13;;;;;;;;;;4997346;28;20514;-71
2022/05/20 07:29:55;;;;;;;11.57;5.05;;;;;;;;;;4969515;28;20030;-71
2022/05/20 07:32:21;;;;;;;8.07;5.30;;;;;;;;;;4970890;28;20045;-73
2022/05/20 07:34:48;;;;;;;9.13;5.00;;;;;;;;;;4971375;28;20042;-72
2022/05/20 07:37:14;;;;;;;6.93;4.43;;;;;;;;;;4971183;28;20039;-72
2022/05/20 07:39:39;;;;;;;7.95;3.97;;;;;;;;;;4964535;28;20528;-71
2022/05/20 07:42:05;;;;;;;8.50;4.93;;;;;;;;;;4948508;28;20034;-71
2022/05/20 07:44:30;;;;;;;8.38;4.47;;;;;;;;;;4966882;28;20397;-71
2022/05/20 07:46:56;;;;;;;10.30;5.32;;;;;;;;;;4969618;28;20038;-71
2022/05/20 07:49:21;;;;;;;7.80;5.15;;;;;;;;;;4969738;28;20046;-71
2022/05/20 07:51:50;;;;;;;11.27;5.68;;;;;;;;;;4971585;28;20093;-72
2022/05/20 07:54:23;;;;;;;7.22;4.97;;;;;;;;;;4970593;28;20065;-71
2022/05/20 07:56:57;;;;;;;8.57;4.93;;;;;;;;;;5001100;28;20037;-70
2022/05/20 07:59:40;;;;;;;8.60;5.13;;;;;;;;;;4967700;28;20778;-72
2022/05/20 08:02:07;;;;;;;7.32;5.40;;;;;;;;;;4952291;28;20049;-71
2022/05/20 08:04:53;;;;;;;9.15;5.07;;;;;;;;;;4960260;28;20086;-72
2022/05/20 08:07:36;;;;;;;10.52;5.85;;;;;;;;;;4973761;28;20046;-71
2022/05/20 08:10:04;;;;;;;;;;;;;;;;;;4976292;28;20184;-71
2022/05/20 08:12:29;;;;;;;13.75;6.00;;;;;;;;;;4973366;28;19929;-70
2022/05/20 08:14:54;;;;;;;9.23;5.97;;;;;;;;;;4973712;28;20080;-70
2022/05/20 08:17:24;;;;;;;7.10;5.63;;;;;;;;;;4973276;28;20042;-72
2022/05/20 08:19:51;;;;;;;9.35;6.45;;;;;;;;;;4973539;28;20698;-72
2022/05/20 08:22:22;;;;;;;13.82;6.35;;;;;;;;;;4970234;28;20042;-72
2022/05/20 08:24:52;;;;;;;10.73;6.55;;;;;;;;;;4964061;28;20540;-72
2022/05/20 08:27:21;;;;;;;9.07;6.32;;;;;;;;;;4962201;28;21237;-71
2022/05/20 08:29:48;;;;;;;9.10;6.85;;;;;;;;;;4969814;28;20371;-71
2022/05/20 08:32:15;;;;;;;8.27;6.07;;;;;;;;;;4970683;28;20401;-73
2022/05/20 08:34:41;;;;;;;9.95;6.60;;;;;;;;;;4971870;28;20033;-71
2022/05/20 08:37:07;;;;;;;14.00;6.43;;;;;;;;;;4973852;28;20073;-70
2022/05/20 08:39:32;;;;;;;16.00;7.90;;;;;;;;;;4971264;28;20103;-72
2022/05/20 08:41:57;;;;;;;22.92;8.05;;;;;;;;;;4972606;28;20390;-71
2022/05/20 08:44:24;;;;;;;15.13;8.18;;;;;;;;;;4972428;28;20165;-71
2022/05/20 08:46:51;;;;;;;14.45;6.85;;;;;;;;;;4971883;28;20477;-72
2022/05/20 08:49:19;;;;;;;15.57;7.05;;;;;;;;;;4969798;28;20137;-72
2022/05/20 08:51:50;;;;;;;9.75;6.97;;;;;;;;;;4951618;28;20053;-72
2022/05/20 08:54:16;;;;;;;10.90;6.70;;;;;;;;;;4971913;28;20541;-71
2022/05/20 08:56:42;;;;;;;11.05;6.97;;;;;;;;;;4968076;28;20178;-72
2022/05/20 08:59:11;;;;;;;14.80;6.13;;;;;;;;;;4970727;28;20042;-71
2022/05/20 09:01:39;;;;;;;12.80;6.43;;;;;;;;;;4971619;28;20038;-72
2022/05/20 09:04:07;;;;;;;9.45;7.47;;;;;;;;;;4970686;28;21535;-71
2022/05/20 09:06:37;;;;;;;11.85;6.07;;;;;;;;;;4968413;28;20137;-71
2022/05/20 09:09:08;;;;;;;8.45;6.40;;;;;;;;;;4972571;28;20505;-71
2022/05/20 09:11:34;;;;;;;13.38;7.05;;;;;;;;;;4969645;28;20047;-71
2022/05/20 09:17:09;;;;;;;11.80;7.13;;;;;;;;;;4950356;28;20097;-71
2022/05/20 09:19:35;;;;;;;12.85;6.97;;;;;;;;;;4963174;28;20043;-71
2022/05/20 09:22:07;;;;;;;10.23;6.53;;;;;;;;;;4971735;28;20038;-71
2022/05/20 09:24:44;;;;;;;10.57;6.25;;;;;;;;;;4972424;28;20044;-72
2022/05/20 09:27:13;;;;;;;8.65;5.57;;;;;;;;;;4970555;28;20041;-71
2022/05/20 09:29:44;;;;;;;8.40;5.60;;;;;;;;;;4971035;28;20026;-70
2022/05/20 09:32:34;;;;;;;15.38;6.22;;;;;;;;;;4970094;28;20520;-70
2022/05/20 09:35:18;;;;;;;9.18;5.72;;;;;;;;;;4972439;28;20054;-72
2022/05/20 09:37:45;;;;;;;8.85;6.25;;;;;;;;;;4972813;28;20039;-72
2022/05/20 09:40:20;;;;;;;10.48;6.13;;;;;;;;;;4971106;28;20101;-72
2022/05/20 09:43:21;;;;;;;11.95;6.10;;;;;;;;;;4972330;28;20077;-72
2022/05/20 09:45:48;;;;;;;11.85;7.55;;;;;;;;;;4971477;28;20042;-72
2022/05/20 09:48:20;;;;;;;17.05;7.03;;;;;;;;;;4972947;28;20034;-73
2022/05/20 09:51:07;;;;;;;11.30;6.65;;;;;;;;;;4974922;28;20140;-72
2022/05/20 09:53:37;;;;;;;13.18;7.55;;;;;;;;;;4949458;28;20740;-72
2022/05/20 09:56:24;;;;;;;10.57;7.68;;;;;;;;;;4947168;28;20043;-73
2022/05/20 09:59:17;;;;;;;11.23;8.57;;;;;;;;;;4962782;28;20148;-73
2022/05/20 10:02:00;;;;;;;10.95;8.07;;;;;;;;;;4972290;28;20050;-73
2022/05/20 10:04:52;;;;;;;10.98;7.22;;;;;;;;;;4974081;28;20084;-72
2022/05/20 10:07:33;;;;;;;12.00;7.30;;;;;;;;;;4975512;28;20045;-72
2022/05/20 10:10:08;;;;;;;9.10;7.15;;;;;;;;;;4973566;28;20116;-71
2022/05/20 10:12:36;;;;;;;10.07;7.60;;;;;;;;;;4971125;28;20836;-72
2022/05/20 10:15:25;;;;;;;12.43;8.65;;;;;;;;;;4974543;28;20084;-72
2022/05/20 10:18:30;;;;;;;12.13;8.80;;;;;;;;;;4967084;28;20089;-71
2022/05/20 10:21:21;;;;;;;12.60;7.97;;;;;;;;;;4962756;28;20050;-70
2022/05/20 10:24:01;;;;;;;15.80;10.07;;;;;;;;;;4967469;28;20454;-72
2022/05/20 10:26:35;;;;;;;9.32;8.27;;;;;;;;;;4930361;28;20129;-74
2022/05/20 10:34:57;;;;;;;14.45;8.88;;;;;;;;;;5034381;27;20876;-72
2022/05/20 10:37:37;;;;;;;15.98;8.88;;;;;;;;;;5014008;28;20041;-73
2022/05/20 10:40:08;;;;;;;13.90;8.95;;;;;;;;;;5016877;28;20042;-71
2022/05/20 10:43:03;;;;;;;19.58;10.38;;;;;;;;;;5006851;28;20575;-70
2022/05/20 10:48:40;;;;;;;14.82;9.30;;;;;;;;;;5006162;28;20140;-71
2022/05/20 10:51:27;;;;;;;10.35;8.60;;;;;;;;;;5008143;28;20121;-72
2022/05/20 10:54:18;;;;;;;14.52;9.60;;;;;;;;;;5000712;28;20049;-71
2022/05/20 10:57:05;;;;;;;10.75;9.07;;;;;;;;;;5016159;28;20103;-70
2022/05/20 11:00:01;;;;;;;15.77;8.55;;;;;;;;;;5003924;28;20037;-70
2022/05/20 11:03:01;;;;;;;11.57;8.27;;;;;;;;;;5003050;28;20433;-70
2022/05/20 11:05:45;;;;;;;7.85;6.97;;;;;;;;;;5003878;28;20041;-70
2022/05/20 11:08:33;;;;;;;12.35;8.50;;;;;;;;;;5002077;28;20045;-69
2022/05/20 11:11:18;;;;;;;14.13;9.10;;;;;;;;;;5002619;28;20172;-69
2022/05/20 11:14:05;;;;;;;13.25;9.52;;;;;;;;;;5001556;28;20046;-70
2022/05/20 11:16:57;;;;;;;14.75;9.30;;;;;;;;;;5001119;28;20556;-71
2022/05/20 11:19:42;;;;;;;12.40;8.68;;;;;;;;;;5003637;28;20079;-69
2022/05/20 11:22:52;;;;;;;10.15;8.27;;;;;;;;;;5003844;28;20033;-69
2022/05/20 11:26:03;;;;;;;10.27;7.43;;;;;;;;;;4990588;28;20037;-71
2022/05/20 11:28:53;;;;;;;13.10;8.65;;;;;;;;;;4968802;28;20038;-70
2022/05/20 11:31:52;;;;;;;15.15;7.90;;;;;;;;;;5003681;28;20045;-70
2022/05/20 11:34:29;;;;;;;10.75;7.80;;;;;;;;;;5003543;28;20050;-70
2022/05/20 11:37:13;;;;;;;11.07;7.95;;;;;;;;;;5004306;28;20168;-68
2022/05/20 11:40:03;;;;;;;11.98;8.25;;;;;;;;;;5002576;28;20108;-71
2022/05/20 11:42:54;;;;;;;10.32;7.60;;;;;;;;;;5017229;28;20132;-70
2022/05/20 11:45:35;;;;;;;9.88;7.13;;;;;;;;;;4994479;28;20056;-71
2022/05/20 11:48:04;;;;;;;8.55;6.20;;;;;;;;;;4991845;28;20057;-70
2022/05/20 11:50:47;;;;;;;12.45;6.72;;;;;;;;;;4990625;28;20113;-69
2022/05/20 11:53:14;;;;;;;9.10;7.28;;;;;;;;;;4991636;28;20473;-70
2022/05/20 11:56:28;;;;;;;11.32;7.55;;;;;;;;;;4993905;28;20083;-70
2022/05/20 11:59:17;;;;;;;11.23;8.32;;;;;;;;;;4944954;28;20700;-70
2022/05/20 12:01:47;;;;;;;12.10;7.18;;;;;;;;;;4992035;28;20042;-69
2022/05/20 12:04:14;;;;;;;11.10;6.88;;;;;;;;;;4987825;28;20625;-69
2022/05/20 12:06:46;;;;;;;11.90;7.18;;;;;;;;;;4992711;28;20050;-68
2022/05/20 12:09:40;;;;;;;13.07;7.40;;;;;;;;;;4992131;28;20037;-69
2022/05/20 12:12:27;;;;;;;10.40;6.78;;;;;;;;;;4992359;28;20453;-70
2022/05/20 12:15:28;;;;;;;8.63;6.45;;;;;;;;;;4991956;28;20136;-70
2022/05/20 12:17:53;;;;;;;8.88;5.80;;;;;;;;;;4991910;28;20045;-69
2022/05/20 12:26:15;;;;;;;9.73;6.05;;;;;;;;;;4989997;28;20053;-70
2022/05/20 12:28:41;;;;;;;9.15;6.22;;;;;;;;;;4989870;28;20129;-69
2022/05/20 12:31:25;;;;;;;8.68;5.72;;;;;;;;;;4987836;28;20033;-68
2022/05/20 12:33:59;;;;;;;11.68;6.78;;;;;;;;;;4991331;28;20029;-69
2022/05/20 12:36:30;;;;;;;9.10;6.35;;;;;;;;;;4992973;28;20080;-70
2022/05/20 12:39:08;;;;;;;11.50;6.57;;;;;;;;;;5006072;28;20530;-71
2022/05/20 12:41:48;;;;;;;11.40;6.10;;;;;;;;;;4993407;28;20129;-71
2022/05/20 12:44:17;;;;;;;10.32;6.78;;;;;;;;;;4990879;28;20575;-71
2022/05/20 12:46:45;;;;;;;11.63;5.72;;;;;;;;;;4990982;28;20067;-71
2022/05/20 12:49:11;;;;;;;7.93;6.00;;;;;;;;;;4989755;28;20045;-70
2022/05/20 12:51:44;;;;;;;7.63;5.50;;;;;;;;;;4991177;28;20038;-70
2022/05/20 12:54:25;;;;;;;7.63;5.53;;;;;;;;;;4991381;28;20497;-71
2022/05/20 12:57:19;;;;;;;7.43;5.63;;;;;;;;;;4989121;28;20518;-70
2022/05/20 12:59:58;;;;;;;7.90;5.65;;;;;;;;;;4988199;28;20080;-70
2022/05/20 13:02:28;;;;;;;10.10;5.78;;;;;;;;;;4990528;28;20034;-69
2022/05/20 13:05:02;;;;;;;10.27;5.15;;;;;;;;;;4992662;28;20046;-70
2022/05/20 13:07:29;;;;;;;12.40;5.22;;;;;;;;;;4991276;28;20117;-71
2022/05/20 13:09:55;;;;;;;8.73;5.20;;;;;;;;;;4992803;28;20033;-69
2022/05/20 13:12:21;;;;;;;8.52;4.93;;;;;;;;;;4989593;28;20530;-70
2022/05/20 13:15:05;;;;;;;6.70;5.00;;;;;;;;;;4990049;28;20050;-67
2022/05/20 13:17:33;;;;;;;9.43;4.95;;;;;;;;;;4991057;28;20141;-70
2022/05/20 13:20:00;;;;;;;10.10;4.97;;;;;;;;;;4990692;28;20088;-69
2022/05/20 13:22:27;;;;;;;16.33;5.40;;;;;;;;;;4989936;28;20045;-69
2022/05/20 13:24:54;;;;;;;9.38;5.18;;;;;;;;;;4990455;28;20168;-68
2022/05/20 13:27:21;;;;;;;6.05;4.97;;;;;;;;;;4989502;28;20042;-70
2022/05/20 13:29:47;;;;;;;10.35;5.65;;;;;;;;;;4988651;28;21068;-70
2022/05/20 13:32:31;;;;;;;8.02;5.20;;;;;;;;;;4989135;28;20041;-68
2022/05/20 13:34:59;;;;;;;12.48;5.53;;;;;;;;;;4990798;28;22561;-69
2022/05/20 13:37:39;;;;;;;10.35;5.20;;;;;;;;;;4985505;28;20259;-70
2022/05/20 13:40:11;;;;;;;7.68;4.72;;;;;;;;;;4986280;28;20061;-70
2022/05/20 13:42:37;;;;;;;8.02;5.13;;;;;;;;;;4989466;28;20541;-69
2022/05/20 13:45:09;;;;;;;6.88;5.18;;;;;;;;;;4986665;28;20044;-69
2022/05/20 13:50:21;;;;;;;8.23;5.07;;;;;;;;;;4990916;28;20052;-71
2022/05/20 13:52:48;;;;;;;8.35;5.35;;;;;;;;;;4984221;28;20041;-70
2022/05/20 13:55:16;;;;;;;9.52;5.10;;;;;;;;;;4989507;28;20037;-71
2022/05/20 13:57:46;;;;;;;7.68;4.90;;;;;;;;;;4990744;28;20409;-70
2022/05/20 14:00:18;;;;;;;15.18;5.45;;;;;;;;;;4991233;28;20075;-69
2022/05/20 14:02:57;;;;;;;7.30;5.07;;;;;;;;;;4990869;28;20394;-69
2022/05/20 14:06:03;;;;;;;11.07;5.60;;;;;;;;;;4989114;28;20539;-71
2022/05/20 14:08:30;;;;;;;8.60;5.20;;;;;;;;;;4941020;28;20038;-69
2022/05/20 14:10:56;;;;;;;8.13;4.93;;;;;;;;;;5002153;28;20482;-69
2022/05/20 14:13:34;;;;;;;8.00;5.18;;;;;;;;;;4990705;28;20568;-70
2022/05/20 14:16:01;;;;;;;6.85;5.25;;;;;;;;;;5007118;28;20588;-71
2022/05/20 14:18:36;;;;;;;8.68;5.70;;;;;;;;;;4987082;28;20136;-70
2022/05/20 14:21:21;;;;;;;18.08;6.20;;;;;;;;;;4985487;28;20492;-69
2022/05/20 14:24:09;;;;;;;9.45;6.15;;;;;;;;;;4987777;28;20501;-69
2022/05/20 14:26:42;;;;;;;8.40;5.22;;;;;;;;;;4980217;28;20042;-70
2022/05/20 14:29:18;;;;;;;8.40;5.28;;;;;;;;;;4985559;28;20148;-70
2022/05/20 14:31:54;;;;;;;9.05;5.45;;;;;;;;;;4989357;28;20045;-70
2022/05/20 14:34:27;;;;;;;9.32;5.10;;;;;;;;;;5004227;28;22183;-68
2022/05/20 14:36:56;;;;;;;10.18;4.80;;;;;;;;;;4987087;28;20048;-70
2022/05/20 14:39:23;;;;;;;7.82;5.03;;;;;;;;;;4986426;28;20050;-69
2022/05/20 14:42:25;;;;;;;9.48;4.68;;;;;;;;;;4985564;28;20125;-70
2022/05/20 14:44:55;;;;;;;8.88;4.20;;;;;;;;;;4983252;28;21758;-71
2022/05/20 14:47:39;;;;;;;5.82;4.03;;;;;;;;;;4984631;28;20042;-69
2022/05/20 14:50:13;;;;;;;9.20;4.55;;;;;;;;;;4995598;28;20060;-69
2022/05/20 14:52:51;;;;;;;9.02;3.25;;;;;;;;;;5007306;28;21264;-69
2022/05/20 14:55:21;;;;;;;4.82;2.97;;;;;;;;;;5006498;28;20082;-71
2022/05/20 14:58:10;;;;;;;7.28;3.13;;;;;;;;;;5006192;28;20551;-69
2022/05/20 15:00:36;;;;;;;10.55;3.25;;;;;;;;;;4986571;28;20666;-69
2022/05/20 15:03:05;;;;;;;10.82;2.50;;;;;;;;;;4987948;28;20042;-70
2022/05/20 15:05:31;;;;;;;7.40;2.58;;;;;;;;;;4989732;28;20480;-68
2022/05/20 15:08:03;;;;;;;5.75;2.50;;;;;;;;;;4988681;28;20041;-71
2022/05/20 15:10:30;;;;;;;;;;;;;;;;;;4991858;28;20070;-69
2022/05/20 15:12:55;;;;;;;6.05;2.35;;;;;;;;;;4990427;28;19940;-70
2022/05/20 15:15:21;;;;;;;6.68;2.53;;;;;;;;;;5002134;28;20682;-69
2022/05/20 15:18:13;;;;;;;7.15;2.97;;;;;;;;;;5005760;28;20056;-70
2022/05/20 15:20:43;;;;;;;5.00;2.38;;;;;;;;;;4990858;28;20070;-70
2022/05/20 15:23:18;;;;;;;8.77;2.75;;;;;;;;;;4988870;28;20054;-70
2022/05/20 15:25:47;;;;;;;7.72;2.65;;;;;;;;;;4990747;28;20064;-70
2022/05/20 15:34:51;;;;;;;7.22;2.78;;;;;;;;;;4992373;28;20048;-69
2022/05/20 15:36:28;;;;;;;4.47;2.50;;;;;;;;;;4989685;28;20045;-68
2022/05/20 15:38:54;;;;;;;4.60;2.42;;;;;;;;;;4989159;28;20046;-70
2022/05/20 15:41:19;;;;;;;6.50;2.85;;;;;;;;;;4991320;28;20409;-69
2022/05/20 15:43:44;;;;;;;3.67;2.88;;;;;;;;;;4985649;28;20492;-69
2022/05/20 15:46:10;;;;;;;7.18;3.00;;;;;;;;;;4987198;28;20069;-68
2022/05/20 15:48:35;;;;;;;6.78;2.88;;;;;;;;;;4986821;28;20043;-70
2022/05/20 15:51:00;;;;;;;8.90;3.20;;;;;;;;;;4988548;28;20463;-70
2022/05/20 15:53:26;;;;;;;6.40;2.70;;;;;;;;;;4985155;28;20088;-70
2022/05/20 15:55:55;;;;;;;6.35;2.80;;;;;;;;;;4985769;28;20041;-71